createdAt,value
2019-04-05T00:00:05.989Z,50.50
2019-04-05T00:02:32.426Z,50.50
2019-04-05T00:04:58.974Z,50.60
2019-04-05T00:07:25.524Z,50.60
2019-04-05T00:09:52.152Z,50.50
2019-04-05T00:12:18.904Z,51.10
2019-04-05T00:14:45.520Z,51.40
2019-04-05T00:17:12.538Z,51.70
2019-04-05T00:19:38.987Z,51.70
2019-04-05T00:22:05.522Z,52.00
2019-04-05T00:24:32.202Z,52.20
2019-04-05T00:26:58.597Z,52.00
2019-04-05T00:29:25.175Z,51.90
2019-04-05T00:31:52.218Z,52.00
2019-04-05T00:34:18.846Z,52.00
2019-04-05T00:36:45.353Z,52.10
2019-04-05T00:39:11.937Z,52.60
2019-04-05T00:41:38.653Z,52.80
2019-04-05T00:44:05.273Z,52.80
2019-04-05T00:46:31.811Z,52.90
2019-04-05T00:48:58.533Z,53.10
2019-04-05T00:51:25.407Z,53.10
2019-04-05T00:53:52.001Z,52.90
2019-04-05T00:56:18.602Z,53.40
2019-04-05T00:58:45.233Z,53.60
2019-04-05T01:01:11.889Z,53.70
2019-04-05T01:03:38.543Z,53.70
2019-04-05T01:06:05.223Z,53.70
2019-04-05T01:08:31.884Z,53.90
2019-04-05T01:10:58.476Z,54.00
2019-04-05T01:13:25.509Z,54.30
2019-04-05T01:15:51.966Z,54.30
2019-04-05T01:18:18.663Z,54.30
2019-04-05T01:20:47.619Z,54.20
2019-04-05T01:23:15.361Z,54.20
2019-04-05T01:25:41.994Z,54.30
2019-04-05T01:28:09.353Z,54.20
2019-04-05T01:30:36.295Z,54.20
2019-04-05T01:33:03.028Z,54.70
2019-04-05T01:35:29.665Z,54.70
2019-04-05T01:37:57.298Z,54.60
2019-04-05T01:40:26.560Z,54.70
2019-04-05T01:42:53.370Z,54.50
2019-04-05T01:45:20.080Z,54.80
2019-04-05T01:47:46.645Z,55.10
2019-04-05T01:50:13.442Z,54.90
2019-04-05T01:52:40.905Z,56.10
2019-04-05T01:55:07.434Z,55.00
2019-04-05T01:57:34.038Z,55.10
2019-04-05T02:00:00.496Z,56.30
2019-04-05T02:02:27.107Z,56.20
2019-04-05T02:04:53.818Z,56.60
2019-04-05T02:07:20.419Z,56.70
2019-04-05T02:09:47.961Z,56.50
2019-04-05T02:12:14.581Z,56.60
2019-04-05T02:14:41.237Z,56.90
2019-04-05T02:17:07.925Z,56.70
2019-04-05T02:19:34.557Z,56.80
2019-04-05T02:22:01.567Z,56.80
2019-04-05T02:24:28.194Z,56.70
2019-04-05T02:26:54.812Z,57.10
2019-04-05T02:29:21.349Z,57.30
2019-04-05T02:31:47.873Z,57.10
2019-04-05T02:34:14.543Z,57.50
2019-04-05T02:36:41.227Z,57.50
2019-04-05T02:39:07.872Z,57.60
2019-04-05T02:41:35.529Z,57.20
2019-04-05T02:44:02.733Z,57.30
2019-04-05T02:46:30.958Z,57.40
2019-04-05T02:49:00.798Z,57.30
2019-04-05T02:51:28.121Z,57.40
2019-04-05T02:53:56.437Z,57.10
2019-04-05T02:56:25.702Z,57.10
2019-04-05T02:58:53.176Z,57.50
2019-04-05T03:01:22.692Z,57.80
2019-04-05T03:03:48.469Z,57.80
2019-04-05T03:06:15.800Z,57.80
2019-04-05T03:08:42.663Z,57.80
2019-04-05T03:11:11.795Z,58.20
2019-04-05T03:13:44.723Z,58.10
2019-04-05T03:16:17.164Z,58.10
2019-04-05T03:18:49.963Z,58.20
2019-04-05T03:21:18.470Z,58.20
2019-04-05T03:23:45.274Z,58.00
2019-04-05T03:26:15.476Z,58.30
2019-04-05T03:28:45.672Z,58.60
2019-04-05T03:31:12.812Z,58.50
2019-04-05T03:33:39.483Z,58.50
2019-04-05T03:36:06.690Z,58.40
2019-04-05T03:38:33.374Z,58.20
2019-04-05T03:41:00.280Z,58.00
2019-04-05T03:43:27.087Z,58.20
2019-04-05T03:45:53.715Z,58.30
2019-04-05T03:48:20.685Z,58.40
2019-04-05T03:50:47.297Z,58.40
2019-04-05T03:53:14.335Z,58.70
2019-04-05T03:55:41.081Z,59.00
2019-04-05T03:58:07.799Z,59.00
2019-04-05T04:00:34.720Z,59.20
2019-04-05T04:03:01.774Z,59.00
2019-04-05T04:05:28.211Z,59.20
2019-04-05T04:07:55.126Z,59.50
2019-04-05T04:10:23.292Z,59.60
2019-04-05T04:12:49.914Z,59.40
2019-04-05T04:15:16.728Z,59.40
2019-04-05T04:17:43.677Z,59.60
2019-04-05T04:20:40.950Z,59.60
2019-04-05T04:23:09.128Z,59.80
2019-04-05T04:25:37.327Z,60.00
2019-04-05T04:28:04.435Z,60.40
2019-04-05T04:30:31.602Z,60.30
2019-04-05T04:32:59.450Z,60.20
2019-04-05T04:35:26.043Z,60.30
2019-04-05T04:37:52.699Z,60.30
2019-04-05T04:40:19.410Z,60.30
2019-04-05T04:42:46.141Z,60.40
2019-04-05T04:45:13.118Z,60.20
2019-04-05T04:47:39.725Z,60.10
2019-04-05T04:50:07.483Z,59.80
2019-04-05T04:52:34.247Z,59.70
2019-04-05T04:55:01.021Z,59.60
2019-04-05T04:57:27.637Z,59.40
2019-04-05T04:59:54.292Z,59.40
2019-04-05T05:02:21.094Z,59.50
2019-04-05T05:04:47.913Z,59.40
2019-04-05T05:07:14.577Z,59.40
2019-04-05T05:09:41.194Z,59.60
2019-04-05T05:12:07.746Z,59.40
2019-04-05T05:14:34.484Z,59.80
2019-04-05T05:17:01.199Z,60.00
2019-04-05T05:19:28.031Z,59.50
2019-04-05T05:21:54.785Z,59.40
2019-04-05T05:24:21.616Z,59.30
2019-04-05T05:26:48.406Z,59.10
2019-04-05T05:29:15.595Z,58.80
2019-04-05T05:31:42.193Z,58.90
2019-04-05T05:34:08.909Z,58.60
2019-04-05T05:36:35.561Z,58.50
2019-04-05T05:39:04.879Z,58.40
2019-04-05T05:41:31.485Z,57.90
2019-04-05T05:43:58.027Z,57.80
2019-04-05T05:46:24.648Z,57.70
2019-04-05T05:48:51.263Z,57.30
2019-04-05T05:51:18.019Z,56.90
2019-04-05T05:53:44.730Z,56.90
2019-04-05T05:56:11.352Z,56.40
2019-04-05T05:58:37.885Z,56.10
2019-04-05T06:01:04.566Z,56.10
2019-04-05T06:03:31.514Z,55.50
2019-04-05T06:06:04.094Z,55.30
2019-04-05T06:08:29.260Z,55.00
2019-04-05T06:10:55.622Z,55.00
2019-04-05T06:13:22.168Z,54.70
2019-04-05T06:15:49.042Z,54.40
2019-04-05T06:18:15.684Z,53.70
2019-04-05T06:20:42.667Z,54.60
2019-04-05T06:23:09.175Z,54.10
2019-04-05T06:25:35.787Z,53.80
2019-04-05T06:28:02.456Z,53.80
2019-04-05T06:30:29.170Z,53.70
2019-04-05T06:32:55.688Z,53.40
2019-04-05T06:35:22.328Z,53.90
2019-04-05T06:37:48.987Z,53.60
2019-04-05T06:40:15.547Z,53.50
2019-04-05T06:42:42.045Z,53.60
2019-04-05T06:45:08.728Z,53.70
2019-04-05T06:47:35.442Z,53.30
2019-04-05T06:50:04.140Z,53.40
2019-04-05T06:52:31.005Z,53.10
2019-04-05T06:54:57.553Z,53.00
2019-04-05T06:57:24.196Z,52.90
2019-04-05T06:59:50.709Z,52.80
2019-04-05T07:02:18.513Z,52.90
2019-04-05T07:04:45.077Z,52.60
2019-04-05T07:07:11.747Z,52.30
2019-04-05T07:09:38.254Z,51.90
2019-04-05T07:12:04.869Z,51.80
2019-04-05T07:14:31.345Z,52.00
2019-04-05T07:16:58.161Z,50.80
2019-04-05T07:19:24.768Z,51.10
2019-04-05T07:21:51.304Z,50.90
2019-04-05T07:24:17.825Z,50.90
2019-04-05T07:26:44.317Z,50.80
2019-04-05T07:29:10.743Z,50.10
2019-04-05T07:31:37.564Z,50.00
2019-04-05T07:34:04.193Z,49.80
2019-04-05T07:36:30.749Z,49.70
2019-04-05T07:38:57.265Z,49.60
2019-04-05T07:41:23.699Z,49.90
2019-04-05T07:43:50.103Z,49.90
2019-04-05T07:46:16.684Z,49.60
2019-04-05T07:48:44.991Z,49.60
2019-04-05T07:51:11.836Z,49.20
2019-04-05T07:53:38.488Z,49.50
2019-04-05T07:56:05.085Z,49.20
2019-04-05T07:58:31.505Z,49.20
2019-04-05T08:00:58.164Z,49.40
2019-04-05T08:03:24.760Z,49.80
2019-04-05T08:05:51.853Z,49.70
2019-04-05T08:08:24.627Z,49.50
2019-04-05T08:10:51.337Z,49.10
2019-04-05T08:13:19.242Z,49.20
2019-04-05T08:15:45.898Z,49.40
2019-04-05T08:18:12.600Z,49.10
2019-04-05T08:20:39.156Z,49.20
2019-04-05T08:23:05.730Z,49.10
2019-04-05T08:25:32.236Z,49.00
2019-04-05T08:27:58.748Z,49.30
2019-04-05T08:30:25.424Z,49.20
2019-04-05T08:32:51.914Z,48.60
2019-04-05T08:35:18.310Z,48.70
2019-04-05T08:37:44.873Z,48.30
2019-04-05T08:40:11.390Z,48.10
2019-04-05T08:42:38.020Z,48.10
2019-04-05T08:45:05.253Z,48.20
2019-04-05T08:47:32.040Z,48.10
2019-04-05T08:49:58.652Z,47.90
2019-04-05T08:52:27.056Z,47.70
2019-04-05T08:54:53.590Z,47.30
2019-04-05T08:57:20.193Z,47.30
2019-04-05T08:59:46.735Z,47.20
2019-04-05T09:02:13.146Z,46.80
2019-04-05T09:04:39.757Z,47.30
2019-04-05T09:07:06.406Z,47.20
2019-04-05T09:09:33.106Z,47.10
2019-04-05T09:11:59.530Z,47.00
2019-04-05T09:14:26.156Z,47.00
2019-04-05T09:16:53.144Z,47.10
2019-04-05T09:19:23.723Z,46.60
2019-04-05T09:24:42.321Z,46.60
2019-04-05T09:27:09.120Z,46.40
2019-04-05T09:29:36.397Z,46.20
2019-04-05T09:32:04.060Z,45.90
2019-04-05T09:34:30.817Z,45.90
2019-04-05T09:36:59.455Z,45.90
2019-04-05T09:39:26.219Z,45.70
2019-04-05T09:41:56.153Z,45.10
2019-04-05T09:44:23.912Z,44.70
2019-04-05T09:46:51.265Z,44.40
2019-04-05T09:49:18.246Z,43.70
2019-04-05T09:51:44.935Z,43.30
2019-04-05T09:54:11.650Z,42.20
2019-04-05T09:56:38.980Z,42.10
2019-04-05T09:59:06.502Z,42.10
2019-04-05T10:01:33.171Z,42.00
2019-04-05T10:03:59.770Z,41.50
2019-04-05T10:06:29.208Z,42.00
2019-04-05T10:08:56.142Z,41.60
2019-04-05T10:11:22.920Z,41.80
2019-04-05T10:13:49.577Z,41.60
2019-04-05T10:16:16.300Z,41.70
2019-04-05T10:18:42.915Z,41.50
2019-04-05T10:21:09.625Z,42.00
2019-04-05T10:23:36.318Z,41.90
2019-04-05T10:26:03.900Z,41.60
2019-04-05T10:28:30.778Z,41.10
2019-04-05T10:31:00.471Z,41.20
2019-04-05T10:33:27.239Z,41.40
2019-04-05T10:35:57.307Z,41.10
2019-04-05T10:38:23.712Z,40.50
2019-04-05T10:40:53.379Z,40.80
2019-04-05T10:43:20.305Z,41.00
2019-04-05T10:45:46.931Z,40.50
2019-04-05T10:48:15.498Z,40.60
2019-04-05T10:50:42.230Z,40.80
2019-04-05T10:53:08.700Z,40.30
2019-04-05T10:55:35.508Z,40.30
2019-04-05T10:58:04.233Z,40.80
2019-04-05T11:00:30.901Z,40.60
2019-04-05T11:02:57.679Z,39.70
2019-04-05T11:05:24.849Z,39.70
2019-04-05T11:07:51.662Z,40.10
2019-04-05T11:10:21.651Z,39.80
2019-04-05T11:12:50.163Z,39.60
2019-04-05T11:15:16.995Z,38.90
2019-04-05T11:17:43.717Z,38.90
2019-04-05T11:20:21.060Z,38.70
2019-04-05T11:22:39.464Z,38.50
2019-04-05T11:25:09.911Z,38.00
2019-04-05T11:27:36.479Z,37.50
2019-04-05T11:30:05.991Z,37.30
2019-04-05T11:32:32.477Z,37.30
2019-04-05T11:34:59.227Z,36.70
2019-04-05T11:37:26.469Z,36.90
2019-04-05T11:39:53.576Z,37.00
2019-04-05T11:42:22.365Z,37.60
2019-04-05T11:44:49.673Z,38.00
2019-04-05T11:47:19.034Z,38.40
2019-04-05T11:49:46.456Z,37.70
2019-04-05T11:52:13.006Z,38.40
2019-04-05T11:54:39.470Z,38.60
2019-04-05T11:57:06.006Z,38.50
2019-04-05T11:59:32.412Z,38.10
2019-04-05T12:02:25.012Z,38.30
2019-04-05T12:04:52.283Z,38.90
2019-04-05T12:07:21.738Z,38.90
2019-04-05T12:09:48.013Z,38.50
2019-04-05T12:12:15.199Z,38.70
2019-04-05T12:14:41.940Z,38.60
2019-04-05T12:17:09.837Z,38.60
2019-04-05T12:19:38.131Z,38.70
2019-04-05T12:22:05.835Z,39.10
2019-04-05T12:24:33.429Z,39.20
2019-04-05T12:27:02.602Z,38.80
2019-04-05T12:29:30.155Z,37.90
2019-04-05T12:31:57.327Z,37.50
2019-04-05T12:34:24.189Z,37.20
2019-04-05T12:36:52.554Z,36.70
2019-04-05T12:39:18.953Z,36.60
2019-04-05T12:41:45.466Z,36.00
2019-04-05T12:44:15.172Z,35.60
2019-04-05T12:46:40.578Z,35.50
2019-04-05T12:49:07.090Z,35.10
2019-04-05T12:51:34.342Z,34.80
2019-04-05T12:54:00.924Z,35.00
2019-04-05T12:56:27.526Z,34.40
2019-04-05T12:58:55.914Z,34.90
2019-04-05T13:01:22.691Z,35.10
2019-04-05T13:03:51.109Z,34.40
2019-04-05T13:06:19.807Z,34.50
2019-04-05T13:08:46.324Z,34.70
2019-04-05T13:11:12.982Z,34.50
2019-04-05T13:13:39.650Z,34.90
2019-04-05T13:16:09.804Z,35.30
2019-04-05T13:18:34.624Z,35.30
2019-04-05T13:21:09.387Z,35.50
2019-04-05T13:23:30.156Z,35.30
2019-04-05T13:25:56.775Z,35.20
2019-04-05T13:28:23.362Z,34.60
2019-04-05T13:30:49.923Z,34.80
2019-04-05T13:33:16.611Z,34.20
2019-04-05T13:35:43.334Z,34.70
2019-04-05T13:38:09.993Z,34.70
2019-04-05T13:40:36.751Z,34.60
2019-04-05T13:43:03.696Z,34.00
2019-04-05T13:45:30.469Z,34.90
2019-04-05T13:47:56.999Z,34.60
2019-04-05T13:50:23.633Z,34.20
2019-04-05T13:52:50.328Z,35.40
2019-04-05T13:55:17.040Z,35.00
2019-04-05T13:57:43.707Z,35.20
2019-04-05T14:00:10.987Z,35.40
2019-04-05T14:02:37.739Z,36.70
2019-04-05T14:05:04.563Z,36.40
2019-04-05T14:07:33.986Z,36.00
2019-04-05T14:09:59.688Z,36.20
2019-04-05T14:12:26.206Z,36.30
2019-04-05T14:14:52.853Z,34.40
2019-04-05T14:17:19.476Z,34.10
2019-04-05T14:19:46.729Z,33.40
2019-04-05T14:22:14.356Z,32.60
2019-04-05T14:24:41.764Z,31.60
2019-04-05T14:27:08.388Z,32.20
2019-04-05T14:29:34.907Z,30.90
2019-04-05T14:32:19.392Z,29.80
2019-04-05T14:34:29.901Z,29.70
2019-04-05T14:36:56.433Z,30.10
2019-04-05T14:39:23.107Z,29.90
2019-04-05T14:41:49.747Z,29.90
2019-04-05T14:44:16.385Z,29.10
2019-04-05T14:46:43.048Z,29.60
2019-04-05T14:49:09.658Z,29.50
2019-04-05T14:51:36.087Z,30.70
2019-04-05T14:54:03.326Z,30.10
2019-04-05T14:56:30.031Z,31.10
2019-04-05T14:58:56.672Z,31.30
2019-04-05T15:01:23.230Z,31.90
2019-04-05T15:03:49.850Z,31.90
2019-04-05T15:06:16.718Z,32.70
2019-04-05T15:08:43.262Z,33.10
2019-04-05T15:11:11.205Z,33.20
2019-04-05T15:13:37.820Z,33.20
2019-04-05T15:16:04.576Z,33.00
2019-04-05T15:18:31.133Z,32.90
2019-04-05T15:20:57.885Z,32.90
2019-04-05T15:23:24.434Z,33.70
2019-04-05T15:25:51.348Z,33.70
2019-04-05T15:28:19.764Z,33.90
2019-04-05T15:30:49.760Z,34.20
2019-04-05T15:33:16.345Z,34.10
2019-04-05T15:35:43.084Z,34.40
2019-04-05T15:38:09.690Z,34.60
2019-04-05T15:40:36.650Z,34.80
2019-04-05T15:43:03.423Z,34.90
2019-04-05T15:45:30.172Z,35.10
2019-04-05T15:47:56.759Z,35.20
2019-04-05T15:50:23.511Z,35.50
2019-04-05T15:52:50.208Z,35.70
2019-04-05T15:55:17.013Z,35.80
2019-04-05T15:57:43.885Z,35.70
2019-04-05T16:00:17.147Z,35.80
2019-04-05T16:02:52.162Z,36.10
2019-04-05T16:05:17.447Z,36.20
2019-04-05T16:07:44.639Z,36.30
2019-04-05T16:10:11.910Z,36.50
2019-04-05T16:12:39.591Z,36.60
2019-04-05T16:15:11.664Z,36.60
2019-04-05T16:17:43.383Z,36.70
2019-04-05T16:20:12.821Z,36.90
2019-04-05T16:22:39.538Z,36.90
2019-04-05T16:25:10.347Z,37.10
2019-04-05T16:27:40.043Z,37.10
2019-04-05T16:30:07.729Z,37.40
2019-04-05T16:32:37.404Z,37.30
2019-04-05T16:35:05.902Z,37.60
2019-04-05T16:37:34.570Z,38.10
2019-04-05T16:40:05.940Z,37.40
2019-04-05T16:42:35.739Z,37.60
2019-04-05T16:45:07.630Z,37.60
2019-04-05T16:47:34.607Z,37.90
2019-04-05T16:50:01.755Z,37.80
2019-04-05T16:52:28.808Z,38.20
2019-04-05T16:54:55.561Z,38.10
2019-04-05T16:57:28.442Z,38.00
2019-04-05T16:59:55.204Z,38.10
2019-04-05T17:02:22.095Z,38.10
2019-04-05T17:04:53.104Z,38.50
2019-04-05T17:07:20.075Z,38.50
2019-04-05T17:09:46.902Z,38.70
2019-04-05T17:12:13.549Z,38.80
2019-04-05T17:14:42.450Z,39.10
2019-04-05T17:17:09.323Z,39.10
2019-04-05T17:19:36.500Z,39.20
2019-04-05T17:22:03.302Z,39.50
2019-04-05T17:24:31.770Z,39.80
2019-04-05T17:26:58.574Z,40.10
2019-04-05T17:29:25.655Z,40.40
2019-04-05T17:31:52.788Z,40.60
2019-04-05T17:34:19.440Z,40.50
2019-04-05T17:36:46.302Z,40.60
2019-04-05T17:39:14.487Z,40.80
2019-04-05T17:41:44.317Z,41.20
2019-04-05T17:44:20.867Z,41.50
2019-04-05T17:46:47.480Z,41.50
2019-04-05T17:49:14.268Z,41.50
2019-04-05T17:51:41.481Z,41.60
2019-04-05T17:54:08.537Z,41.80
2019-04-05T17:56:35.228Z,42.00
2019-04-05T17:59:04.928Z,42.40
2019-04-05T18:01:34.651Z,42.10
2019-04-05T18:04:01.915Z,42.30
2019-04-05T18:06:28.650Z,42.50
2019-04-05T18:08:55.360Z,42.70
2019-04-05T18:11:22.360Z,42.80
2019-04-05T18:13:49.257Z,42.90
2019-04-05T18:16:16.331Z,43.30
2019-04-05T18:18:50.736Z,43.20
2019-04-05T18:21:20.290Z,43.60
2019-04-05T18:23:51.863Z,43.50
2019-04-05T18:26:19.114Z,43.70
2019-04-05T18:28:48.834Z,43.80
2019-04-05T18:31:15.614Z,43.90
2019-04-05T18:33:42.152Z,44.00
2019-04-05T18:36:08.867Z,44.20
2019-04-05T18:38:35.571Z,44.40
2019-04-05T18:41:02.145Z,44.70
2019-04-05T18:43:29.213Z,45.00
2019-04-05T18:45:55.946Z,44.90
2019-04-05T18:48:22.786Z,45.10
2019-04-05T18:50:51.372Z,45.20
2019-04-05T18:53:17.995Z,46.00
2019-04-05T18:55:44.633Z,46.50
2019-04-05T18:58:11.664Z,46.30
2019-04-05T19:00:38.806Z,46.00
2019-04-05T19:03:06.055Z,46.50
2019-04-05T19:05:32.538Z,46.50
2019-04-05T19:07:59.202Z,46.90
2019-04-05T19:10:36.485Z,46.80
2019-04-05T19:12:59.360Z,46.80
2019-04-05T19:15:23.741Z,46.70
2019-04-05T19:17:50.468Z,46.90
2019-04-05T19:20:17.240Z,46.90
2019-04-05T19:22:44.241Z,47.10
2019-04-05T19:25:10.905Z,47.20
2019-04-05T19:27:42.674Z,47.40
2019-04-05T19:50:04.976Z,48.60
2019-04-05T19:52:31.498Z,48.90
2019-04-05T19:54:58.038Z,48.90
2019-04-05T19:57:24.574Z,48.80
2019-04-05T19:59:51.141Z,48.60
2019-04-05T20:02:17.766Z,48.70
2019-04-05T20:04:44.391Z,48.90
2019-04-05T20:07:10.959Z,49.00
2019-04-05T20:09:37.569Z,48.70
2019-04-05T20:12:04.213Z,48.50
2019-04-05T20:14:30.791Z,48.40
2019-04-05T20:16:57.430Z,48.40
2019-04-05T20:19:23.962Z,48.30
2019-04-05T20:21:50.585Z,48.50
2019-04-05T20:24:17.092Z,48.60
2019-04-05T20:26:43.630Z,48.60
2019-04-05T20:29:10.136Z,48.40
2019-04-05T20:31:36.887Z,48.30
2019-04-05T20:34:06.440Z,48.30
2019-04-05T20:36:33.062Z,48.40
2019-04-05T20:38:59.560Z,48.40
2019-04-05T20:41:26.305Z,48.40
2019-04-05T20:43:52.697Z,48.30
2019-04-05T20:46:19.340Z,48.30
2019-04-05T20:48:45.952Z,48.40
2019-04-05T20:51:12.783Z,48.50
2019-04-05T20:53:39.711Z,48.60
2019-04-05T20:56:06.688Z,49.40
2019-04-05T20:58:33.331Z,49.10
2019-04-05T21:00:59.887Z,49.20
2019-04-05T21:03:26.382Z,49.10
2019-04-05T21:05:52.971Z,49.30
2019-04-05T21:08:19.489Z,49.30
2019-04-05T21:10:46.115Z,49.50
2019-04-05T21:13:12.571Z,49.50
2019-04-05T21:15:39.020Z,49.50
2019-04-05T21:18:05.429Z,49.60
2019-04-05T21:20:32.056Z,49.60
2019-04-05T21:22:58.508Z,49.70
2019-04-05T21:25:24.922Z,49.70
2019-04-05T21:27:51.336Z,49.90
2019-04-05T21:30:18.157Z,49.70
2019-04-05T21:32:44.706Z,49.70
2019-04-05T21:35:11.429Z,49.80
2019-04-05T21:37:38.240Z,49.80
2019-04-05T21:40:04.930Z,49.80
2019-04-05T21:42:31.427Z,50.10
2019-04-05T21:44:57.979Z,50.10
2019-04-05T21:47:24.706Z,50.00
2019-04-05T21:49:51.276Z,50.20
2019-04-05T21:52:17.885Z,50.40
2019-04-05T21:54:47.683Z,50.50
2019-04-05T21:57:13.540Z,50.40
2019-04-05T21:59:40.047Z,51.20
2019-04-05T22:02:06.764Z,50.80
2019-04-05T22:04:33.385Z,51.00
2019-04-05T22:06:59.904Z,51.20
2019-04-05T22:09:26.649Z,51.60
2019-04-05T22:11:53.628Z,51.80
2019-04-05T22:14:20.106Z,51.90
2019-04-05T22:16:46.768Z,51.60
2019-04-05T22:19:13.274Z,51.40
2019-04-05T22:21:40.298Z,51.40
2019-04-05T22:24:06.908Z,51.40
2019-04-05T22:26:33.633Z,51.70
2019-04-05T22:29:00.314Z,51.80
2019-04-05T22:31:26.828Z,52.10
2019-04-05T22:33:53.377Z,52.20
2019-04-05T22:36:20.106Z,52.10
2019-04-05T22:38:46.628Z,52.20
2019-04-05T22:41:13.553Z,52.30
2019-04-05T22:43:40.131Z,52.40
2019-04-05T22:46:06.811Z,52.40
2019-04-05T22:48:33.333Z,52.40
2019-04-05T22:51:00.254Z,52.50
2019-04-05T22:53:26.773Z,52.50
2019-04-05T22:55:53.387Z,52.50
2019-04-05T22:58:20.169Z,52.50
2019-04-05T23:00:46.621Z,52.40
2019-04-05T23:03:13.142Z,52.60
2019-04-05T23:05:39.807Z,52.60
2019-04-05T23:08:06.205Z,52.40
2019-04-05T23:10:32.678Z,52.40
2019-04-05T23:12:59.200Z,53.10
2019-04-05T23:15:25.774Z,52.60
2019-04-05T23:17:52.653Z,53.00
2019-04-05T23:20:19.265Z,53.20
2019-04-05T23:22:46.112Z,53.20
2019-04-05T23:25:21.513Z,53.30
2019-04-05T23:27:41.358Z,53.60
2019-04-05T23:30:08.563Z,53.50
2019-04-05T23:32:35.133Z,53.30
2019-04-05T23:35:02.212Z,53.50
2019-04-05T23:37:28.889Z,53.50
2019-04-05T23:39:55.430Z,53.70
2019-04-05T23:42:21.969Z,54.00
2019-04-05T23:44:48.405Z,53.70
2019-04-05T23:47:14.981Z,53.70
2019-04-05T23:49:41.812Z,53.60
2019-04-05T23:52:08.354Z,53.50
2019-04-05T23:54:34.955Z,53.60
2019-04-05T23:57:01.465Z,53.40
2019-04-05T23:59:28.217Z,53.60
